sensor_id;sensor_type;location;lat;lon;timestamp;temperature;humidity
26186;DHT22;20067;48.764;9.176;2024-03-23T00:51:24;12.60;88.00
26186;DHT22;20067;48.764;9.176;2024-03-23T00:53:51;12.60;88.00
26186;DHT22;20067;48.764;9.176;2024-03-23T00:56:16;12.50;88.20
26186;DHT22;20067;48.764;9.176;2024-03-23T00:58:43;12.40;88.70
26186;DHT22;20067;48.764;9.176;2024-03-23T01:01:09;12.40;88.80
26186;DHT22;20067;48.764;9.176;2024-03-23T01:03:36;12.40;88.70
26186;DHT22;20067;48.764;9.176;2024-03-23T01:06:02;12.40;88.80
26186;DHT22;20067;48.764;9.176;2024-03-23T01:08:29;12.30;88.80
26186;DHT22;20067;48.764;9.176;2024-03-23T01:10:59;12.20;89.10
26186;DHT22;20067;48.764;9.176;2024-03-23T01:13:27;12.00;89.60
26186;DHT22;20067;48.764;9.176;2024-03-23T01:15:53;12.10;89.80
26186;DHT22;20067;48.764;9.176;2024-03-23T01:18:21;12.10;89.50
26186;DHT22;20067;48.764;9.176;2024-03-23T01:20:48;12.00;90.10
26186;DHT22;20067;48.764;9.176;2024-03-23T01:23:15;12.10;89.80
26186;DHT22;20067;48.764;9.176;2024-03-23T01:25:41;12.30;89.30
26186;DHT22;20067;48.764;9.176;2024-03-23T01:28:07;12.30;89.40
26186;DHT22;20067;48.764;9.176;2024-03-23T01:30:34;12.20;89.60
26186;DHT22;20067;48.764;9.176;2024-03-23T01:33:02;12.40;89.40
26186;DHT22;20067;48.764;9.176;2024-03-23T01:35:28;12.40;89.50
26186;DHT22;20067;48.764;9.176;2024-03-23T01:37:55;12.40;89.40
26186;DHT22;20067;48.764;9.176;2024-03-23T01:40:21;12.50;89.20
26186;DHT22;20067;48.764;9.176;2024-03-23T01:42:58;12.30;89.90
26186;DHT22;20067;48.764;9.176;2024-03-23T01:45:24;12.20;90.10
26186;DHT22;20067;48.764;9.176;2024-03-23T01:47:53;12.20;90.40
26186;DHT22;20067;48.764;9.176;2024-03-23T01:50:20;12.40;90.10
26186;DHT22;20067;48.764;9.176;2024-03-23T01:52:48;12.70;89.10
26186;DHT22;20067;48.764;9.176;2024-03-23T01:55:14;12.90;88.60
26186;DHT22;20067;48.764;9.176;2024-03-23T01:57:41;12.80;88.70
26186;DHT22;20067;48.764;9.176;2024-03-23T02:00:07;12.90;88.60
26186;DHT22;20067;48.764;9.176;2024-03-23T02:02:35;13.10;88.30
26186;DHT22;20067;48.764;9.176;2024-03-23T02:05:00;13.20;87.90
26186;DHT22;20067;48.764;9.176;2024-03-23T02:07:27;13.30;87.60
26186;DHT22;20067;48.764;9.176;2024-03-23T02:09:53;13.30;87.50
26186;DHT22;20067;48.764;9.176;2024-03-23T02:12:20;13.40;87.40
26186;DHT22;20067;48.764;9.176;2024-03-23T02:14:46;13.40;87.40
26186;DHT22;20067;48.764;9.176;2024-03-23T02:17:13;13.30;87.70
26186;DHT22;20067;48.764;9.176;2024-03-23T02:19:39;13.20;88.10
26186;DHT22;20067;48.764;9.176;2024-03-23T02:22:05;13.20;88.20
26186;DHT22;20067;48.764;9.176;2024-03-23T02:24:31;13.10;88.40
26186;DHT22;20067;48.764;9.176;2024-03-23T02:26:59;13.20;88.30
26186;DHT22;20067;48.764;9.176;2024-03-23T02:29:25;13.20;88.50
26186;DHT22;20067;48.764;9.176;2024-03-23T02:31:51;13.30;88.50
26186;DHT22;20067;48.764;9.176;2024-03-23T02:34:17;13.30;88.50
26186;DHT22;20067;48.764;9.176;2024-03-23T02:36:44;13.30;88.40
26186;DHT22;20067;48.764;9.176;2024-03-23T02:39:09;13.30;88.60
26186;DHT22;20067;48.764;9.176;2024-03-23T02:41:36;13.40;88.60
26186;DHT22;20067;48.764;9.176;2024-03-23T02:44:02;13.40;88.50
26186;DHT22;20067;48.764;9.176;2024-03-23T02:46:29;13.40;88.50
26186;DHT22;20067;48.764;9.176;2024-03-23T02:48:55;13.50;88.50
26186;DHT22;20067;48.764;9.176;2024-03-23T02:51:22;13.40;88.60
26186;DHT22;20067;48.764;9.176;2024-03-23T02:53:48;13.40;88.80
26186;DHT22;20067;48.764;9.176;2024-03-23T02:56:15;13.30;89.10
26186;DHT22;20067;48.764;9.176;2024-03-23T02:58:42;13.20;89.40
26186;DHT22;20067;48.764;9.176;2024-03-23T03:01:09;13.20;89.60
26186;DHT22;20067;48.764;9.176;2024-03-23T03:03:35;13.20;89.70
26186;DHT22;20067;48.764;9.176;2024-03-23T03:06:02;13.20;89.70
26186;DHT22;20067;48.764;9.176;2024-03-23T03:08:27;13.10;90.00
26186;DHT22;20067;48.764;9.176;2024-03-23T03:10:54;13.20;90.20
26186;DHT22;20067;48.764;9.176;2024-03-23T03:13:20;13.20;90.00
26186;DHT22;20067;48.764;9.176;2024-03-23T03:15:46;13.20;90.00
26186;DHT22;20067;48.764;9.176;2024-03-23T03:18:12;13.30;89.90
26186;DHT22;20067;48.764;9.176;2024-03-23T03:20:39;13.20;90.00
26186;DHT22;20067;48.764;9.176;2024-03-23T03:23:06;13.20;90.40
26186;DHT22;20067;48.764;9.176;2024-03-23T03:25:33;13.20;90.20
26186;DHT22;20067;48.764;9.176;2024-03-23T03:27:58;13.30;90.00
26186;DHT22;20067;48.764;9.176;2024-03-23T03:30:25;13.20;90.20
26186;DHT22;20067;48.764;9.176;2024-03-23T03:32:53;13.20;90.30
26186;DHT22;20067;48.764;9.176;2024-03-23T03:35:20;13.20;90.30
26186;DHT22;20067;48.764;9.176;2024-03-23T03:37:46;13.20;90.40
26186;DHT22;20067;48.764;9.176;2024-03-23T03:40:13;13.00;90.80
26186;DHT22;20067;48.764;9.176;2024-03-23T03:42:40;13.00;91.20
26186;DHT22;20067;48.764;9.176;2024-03-23T03:45:07;13.10;91.10
26186;DHT22;20067;48.764;9.176;2024-03-23T03:47:33;13.10;91.00
26186;DHT22;20067;48.764;9.176;2024-03-23T03:50:00;13.10;91.30
26186;DHT22;20067;48.764;9.176;2024-03-23T03:52:25;13.00;91.20
26186;DHT22;20067;48.764;9.176;2024-03-23T03:55:01;13.00;91.30
26186;DHT22;20067;48.764;9.176;2024-03-23T03:57:27;13.00;91.30
26186;DHT22;20067;48.764;9.176;2024-03-23T03:59:54;12.80;91.30
26186;DHT22;20067;48.764;9.176;2024-03-23T04:02:20;12.90;91.30
26186;DHT22;20067;48.764;9.176;2024-03-23T04:04:47;12.90;91.30
26186;DHT22;20067;48.764;9.176;2024-03-23T04:07:12;12.80;91.30
26186;DHT22;20067;48.764;9.176;2024-03-23T04:09:39;12.90;91.30
26186;DHT22;20067;48.764;9.176;2024-03-23T04:12:05;12.90;91.30
26186;DHT22;20067;48.764;9.176;2024-03-23T04:14:32;12.90;91.30
26186;DHT22;20067;48.764;9.176;2024-03-23T04:16:58;12.90;91.30
26186;DHT22;20067;48.764;9.176;2024-03-23T04:19:24;12.90;91.30
26186;DHT22;20067;48.764;9.176;2024-03-23T04:21:50;12.90;91.30
26186;DHT22;20067;48.764;9.176;2024-03-23T04:24:17;12.80;91.30
26186;DHT22;20067;48.764;9.176;2024-03-23T04:26:44;12.80;91.30
26186;DHT22;20067;48.764;9.176;2024-03-23T04:29:11;12.80;91.30
26186;DHT22;20067;48.764;9.176;2024-03-23T04:31:38;12.80;91.30
26186;DHT22;20067;48.764;9.176;2024-03-23T04:34:04;12.90;91.30
26186;DHT22;20067;48.764;9.176;2024-03-23T04:36:30;13.00;91.30
26186;DHT22;20067;48.764;9.176;2024-03-23T04:39:00;13.10;91.30
26186;DHT22;20067;48.764;9.176;2024-03-23T04:41:27;12.50;91.30
26186;DHT22;20067;48.764;9.176;2024-03-23T04:43:53;12.40;91.30
26186;DHT22;20067;48.764;9.176;2024-03-23T04:46:20;12.60;91.30
26186;DHT22;20067;48.764;9.176;2024-03-23T04:48:46;12.70;91.30
26186;DHT22;20067;48.764;9.176;2024-03-23T04:51:23;12.80;91.30
26186;DHT22;20067;48.764;9.176;2024-03-23T04:53:49;12.60;91.30
26186;DHT22;20067;48.764;9.176;2024-03-23T04:56:16;12.70;91.30
26186;DHT22;20067;48.764;9.176;2024-03-23T04:58:44;12.60;91.30
26186;DHT22;20067;48.764;9.176;2024-03-23T05:01:10;12.70;91.30
26186;DHT22;20067;48.764;9.176;2024-03-23T05:03:38;12.70;91.30
26186;DHT22;20067;48.764;9.176;2024-03-23T05:06:04;12.90;91.30
26186;DHT22;20067;48.764;9.176;2024-03-23T05:08:31;12.90;91.30
26186;DHT22;20067;48.764;9.176;2024-03-23T05:10:57;12.90;91.30
26186;DHT22;20067;48.764;9.176;2024-03-23T05:13:23;12.80;91.30
26186;DHT22;20067;48.764;9.176;2024-03-23T05:15:53;12.90;91.30
26186;DHT22;20067;48.764;9.176;2024-03-23T05:18:21;12.90;91.30
26186;DHT22;20067;48.764;9.176;2024-03-23T05:20:48;12.70;91.30
26186;DHT22;20067;48.764;9.176;2024-03-23T05:23:14;12.60;91.30
26186;DHT22;20067;48.764;9.176;2024-03-23T05:25:40;12.50;91.30
26186;DHT22;20067;48.764;9.176;2024-03-23T05:28:06;12.30;91.30
26186;DHT22;20067;48.764;9.176;2024-03-23T05:30:33;12.20;91.30
26186;DHT22;20067;48.764;9.176;2024-03-23T05:32:58;12.30;91.30
26186;DHT22;20067;48.764;9.176;2024-03-23T05:35:25;12.30;91.30
26186;DHT22;20067;48.764;9.176;2024-03-23T05:37:51;12.10;91.30
26186;DHT22;20067;48.764;9.176;2024-03-23T05:40:18;11.80;91.30
26186;DHT22;20067;48.764;9.176;2024-03-23T05:42:43;11.60;91.30
26186;DHT22;20067;48.764;9.176;2024-03-23T05:45:10;11.30;91.30
26186;DHT22;20067;48.764;9.176;2024-03-23T05:47:36;11.40;91.30
26186;DHT22;20067;48.764;9.176;2024-03-23T05:50:04;11.40;91.30
26186;DHT22;20067;48.764;9.176;2024-03-23T05:52:29;11.60;91.30
26186;DHT22;20067;48.764;9.176;2024-03-23T05:54:56;11.70;91.30
26186;DHT22;20067;48.764;9.176;2024-03-23T05:57:23;11.70;91.30
26186;DHT22;20067;48.764;9.176;2024-03-23T05:59:51;11.60;91.30
26186;DHT22;20067;48.764;9.176;2024-03-23T06:02:16;11.40;91.30
26186;DHT22;20067;48.764;9.176;2024-03-23T06:04:45;11.50;91.30
26186;DHT22;20067;48.764;9.176;2024-03-23T06:07:11;11.20;91.30
26186;DHT22;20067;48.764;9.176;2024-03-23T06:09:42;11.00;91.30
26186;DHT22;20067;48.764;9.176;2024-03-23T06:12:08;11.00;91.30
26186;DHT22;20067;48.764;9.176;2024-03-23T06:14:35;11.20;91.30
26186;DHT22;20067;48.764;9.176;2024-03-23T06:17:01;11.10;91.30
26186;DHT22;20067;48.764;9.176;2024-03-23T06:19:28;11.10;91.30
26186;DHT22;20067;48.764;9.176;2024-03-23T06:21:55;11.20;91.30
26186;DHT22;20067;48.764;9.176;2024-03-23T06:24:25;11.30;91.30
26186;DHT22;20067;48.764;9.176;2024-03-23T06:26:51;11.20;91.30
26186;DHT22;20067;48.764;9.176;2024-03-23T06:29:17;11.00;91.30
26186;DHT22;20067;48.764;9.176;2024-03-23T06:31:43;11.00;91.30
26186;DHT22;20067;48.764;9.176;2024-03-23T06:34:10;11.00;91.30
26186;DHT22;20067;48.764;9.176;2024-03-23T06:36:36;11.10;91.30
26186;DHT22;20067;48.764;9.176;2024-03-23T06:39:04;11.10;91.30
26186;DHT22;20067;48.764;9.176;2024-03-23T06:41:30;11.10;91.30
26186;DHT22;20067;48.764;9.176;2024-03-23T06:43:57;11.00;91.30
26186;DHT22;20067;48.764;9.176;2024-03-23T06:46:23;10.90;91.30
26186;DHT22;20067;48.764;9.176;2024-03-23T06:48:49;10.90;91.30
26186;DHT22;20067;48.764;9.176;2024-03-23T06:51:15;10.70;91.30
26186;DHT22;20067;48.764;9.176;2024-03-23T06:53:42;10.70;91.30
26186;DHT22;20067;48.764;9.176;2024-03-23T06:56:08;10.70;91.30
26186;DHT22;20067;48.764;9.176;2024-03-23T06:58:35;10.60;91.30
26186;DHT22;20067;48.764;9.176;2024-03-23T07:01:01;10.60;91.30
26186;DHT22;20067;48.764;9.176;2024-03-23T07:03:27;10.70;91.30
26186;DHT22;20067;48.764;9.176;2024-03-23T07:05:58;10.70;91.30
26186;DHT22;20067;48.764;9.176;2024-03-23T07:08:25;10.70;91.30
26186;DHT22;20067;48.764;9.176;2024-03-23T07:10:50;10.70;91.30
26186;DHT22;20067;48.764;9.176;2024-03-23T07:13:17;10.80;91.30
26186;DHT22;20067;48.764;9.176;2024-03-23T07:15:43;10.80;91.30
26186;DHT22;20067;48.764;9.176;2024-03-23T07:18:09;11.00;91.30
26186;DHT22;20067;48.764;9.176;2024-03-23T07:20:36;11.00;91.30
26186;DHT22;20067;48.764;9.176;2024-03-23T07:23:03;11.00;91.30
26186;DHT22;20067;48.764;9.176;2024-03-23T07:25:29;11.00;91.30
26186;DHT22;20067;48.764;9.176;2024-03-23T07:27:57;11.00;91.30
26186;DHT22;20067;48.764;9.176;2024-03-23T07:30:22;11.00;91.30
26186;DHT22;20067;48.764;9.176;2024-03-23T07:32:49;11.00;91.30
26186;DHT22;20067;48.764;9.176;2024-03-23T07:35:15;10.80;91.30
26186;DHT22;20067;48.764;9.176;2024-03-23T07:37:42;10.90;91.30
26186;DHT22;20067;48.764;9.176;2024-03-23T07:40:08;11.20;91.30
26186;DHT22;20067;48.764;9.176;2024-03-23T07:42:35;10.60;91.30
26186;DHT22;20067;48.764;9.176;2024-03-23T07:45:01;10.70;91.30
26186;DHT22;20067;48.764;9.176;2024-03-23T07:47:28;10.80;91.30
26186;DHT22;20067;48.764;9.176;2024-03-23T07:49:57;10.90;91.30
26186;DHT22;20067;48.764;9.176;2024-03-23T07:52:24;11.00;91.30
26186;DHT22;20067;48.764;9.176;2024-03-23T07:54:53;10.90;91.30
26186;DHT22;20067;48.764;9.176;2024-03-23T07:57:20;10.70;91.30
26186;DHT22;20067;48.764;9.176;2024-03-23T07:59:45;10.80;91.30
26186;DHT22;20067;48.764;9.176;2024-03-23T08:02:12;10.50;91.30
26186;DHT22;20067;48.764;9.176;2024-03-23T08:04:38;10.00;91.30
26186;DHT22;20067;48.764;9.176;2024-03-23T08:07:05;10.00;91.30
26186;DHT22;20067;48.764;9.176;2024-03-23T08:09:32;10.00;91.30
26186;DHT22;20067;48.764;9.176;2024-03-23T08:11:59;10.10;91.30
26186;DHT22;20067;48.764;9.176;2024-03-23T08:14:24;10.10;91.30
26186;DHT22;20067;48.764;9.176;2024-03-23T08:16:51;9.90;91.30
26186;DHT22;20067;48.764;9.176;2024-03-23T08:19:17;9.90;91.30
26186;DHT22;20067;48.764;9.176;2024-03-23T08:21:43;10.10;91.30
26186;DHT22;20067;48.764;9.176;2024-03-23T08:24:09;10.20;91.30
26186;DHT22;20067;48.764;9.176;2024-03-23T08:26:36;10.60;91.30
26186;DHT22;20067;48.764;9.176;2024-03-23T08:29:03;10.40;91.30
26186;DHT22;20067;48.764;9.176;2024-03-23T08:31:30;10.30;91.30
26186;DHT22;20067;48.764;9.176;2024-03-23T08:33:55;10.50;91.30
26186;DHT22;20067;48.764;9.176;2024-03-23T08:36:22;10.70;91.30
26186;DHT22;20067;48.764;9.176;2024-03-23T08:38:49;11.00;91.30
26186;DHT22;20067;48.764;9.176;2024-03-23T08:41:19;11.20;91.30
26186;DHT22;20067;48.764;9.176;2024-03-23T08:43:44;11.30;91.30
26186;DHT22;20067;48.764;9.176;2024-03-23T08:46:15;11.70;91.30
26186;DHT22;20067;48.764;9.176;2024-03-23T08:48:46;11.70;91.30
26186;DHT22;20067;48.764;9.176;2024-03-23T08:51:15;11.70;91.30
26186;DHT22;20067;48.764;9.176;2024-03-23T08:53:42;12.40;91.30
26186;DHT22;20067;48.764;9.176;2024-03-23T08:56:10;12.40;91.30
26186;DHT22;20067;48.764;9.176;2024-03-23T08:58:37;12.50;91.30
26186;DHT22;20067;48.764;9.176;2024-03-23T09:01:09;12.90;91.00
26186;DHT22;20067;48.764;9.176;2024-03-23T09:03:36;12.30;91.10
26186;DHT22;20067;48.764;9.176;2024-03-23T09:06:07;12.60;89.60
26186;DHT22;20067;48.764;9.176;2024-03-23T09:08:33;12.50;88.80
26186;DHT22;20067;48.764;9.176;2024-03-23T09:11:04;12.10;90.40
26186;DHT22;20067;48.764;9.176;2024-03-23T09:13:32;11.90;90.50
26186;DHT22;20067;48.764;9.176;2024-03-23T09:15:59;11.50;91.30
26186;DHT22;20067;48.764;9.176;2024-03-23T09:18:25;11.20;91.30
26186;DHT22;20067;48.764;9.176;2024-03-23T09:20:52;11.00;91.30
26186;DHT22;20067;48.764;9.176;2024-03-23T09:23:20;10.90;91.30
26186;DHT22;20067;48.764;9.176;2024-03-23T09:25:46;10.90;91.30
26186;DHT22;20067;48.764;9.176;2024-03-23T09:28:12;11.10;89.80
26186;DHT22;20067;48.764;9.176;2024-03-23T09:30:39;11.20;89.80
26186;DHT22;20067;48.764;9.176;2024-03-23T09:33:09;11.00;88.50
26186;DHT22;20067;48.764;9.176;2024-03-23T09:38:04;11.40;88.30
26186;DHT22;20067;48.764;9.176;2024-03-23T09:40:33;11.60;86.00
26186;DHT22;20067;48.764;9.176;2024-03-23T09:42:59;11.50;83.80
26186;DHT22;20067;48.764;9.176;2024-03-23T09:45:29;11.70;82.90
26186;DHT22;20067;48.764;9.176;2024-03-23T09:47:55;11.40;82.50
26186;DHT22;20067;48.764;9.176;2024-03-23T09:50:22;11.70;82.50
26186;DHT22;20067;48.764;9.176;2024-03-23T09:52:48;11.70;81.60
26186;DHT22;20067;48.764;9.176;2024-03-23T09:55:15;11.70;81.00
26186;DHT22;20067;48.764;9.176;2024-03-23T09:57:42;11.50;81.20
26186;DHT22;20067;48.764;9.176;2024-03-23T10:00:09;11.00;81.60
26186;DHT22;20067;48.764;9.176;2024-03-23T10:02:35;11.40;80.60
26186;DHT22;20067;48.764;9.176;2024-03-23T10:05:02;11.30;79.90
26186;DHT22;20067;48.764;9.176;2024-03-23T10:07:28;11.10;80.80
26186;DHT22;20067;48.764;9.176;2024-03-23T10:09:55;11.20;80.20
26186;DHT22;20067;48.764;9.176;2024-03-23T10:12:22;11.30;80.30
26186;DHT22;20067;48.764;9.176;2024-03-23T10:14:49;11.10;80.50
26186;DHT22;20067;48.764;9.176;2024-03-23T10:19:48;11.60;80.90
26186;DHT22;20067;48.764;9.176;2024-03-23T10:22:21;11.60;80.40
26186;DHT22;20067;48.764;9.176;2024-03-23T10:24:49;11.60;80.90
26186;DHT22;20067;48.764;9.176;2024-03-23T10:27:21;11.80;80.90
26186;DHT22;20067;48.764;9.176;2024-03-23T10:29:49;11.80;80.50
26186;DHT22;20067;48.764;9.176;2024-03-23T10:32:16;12.00;81.20
26186;DHT22;20067;48.764;9.176;2024-03-23T10:34:44;11.90;80.90
26186;DHT22;20067;48.764;9.176;2024-03-23T10:37:10;12.00;81.10
26186;DHT22;20067;48.764;9.176;2024-03-23T10:39:40;11.70;80.70
26186;DHT22;20067;48.764;9.176;2024-03-23T10:42:09;11.60;80.60
26186;DHT22;20067;48.764;9.176;2024-03-23T10:44:37;11.10;80.60
26186;DHT22;20067;48.764;9.176;2024-03-23T10:47:05;11.20;80.90
26186;DHT22;20067;48.764;9.176;2024-03-23T10:49:33;11.40;80.60
26186;DHT22;20067;48.764;9.176;2024-03-23T10:52:05;11.30;82.90
26186;DHT22;20067;48.764;9.176;2024-03-23T10:54:33;11.20;84.80
26186;DHT22;20067;48.764;9.176;2024-03-23T10:57:17;11.00;85.80
26186;DHT22;20067;48.764;9.176;2024-03-23T10:59:46;10.70;86.00
26186;DHT22;20067;48.764;9.176;2024-03-23T11:02:22;10.20;88.20
26186;DHT22;20067;48.764;9.176;2024-03-23T11:04:48;9.30;91.30
26186;DHT22;20067;48.764;9.176;2024-03-23T11:09:53;7.80;91.30
26186;DHT22;20067;48.764;9.176;2024-03-23T11:14:57;7.80;91.30
26186;DHT22;20067;48.764;9.176;2024-03-23T11:17:25;8.00;91.30
26186;DHT22;20067;48.764;9.176;2024-03-23T11:20:02;8.50;91.30
26186;DHT22;20067;48.764;9.176;2024-03-23T11:25:34;9.70;91.30
26186;DHT22;20067;48.764;9.176;2024-03-23T11:28:11;10.20;91.30
26186;DHT22;20067;48.764;9.176;2024-03-23T11:30:37;10.60;91.30
26186;DHT22;20067;48.764;9.176;2024-03-23T11:33:04;11.90;91.30
26186;DHT22;20067;48.764;9.176;2024-03-23T11:35:31;12.20;89.00
26186;DHT22;20067;48.764;9.176;2024-03-23T11:40:27;12.60;88.00
26186;DHT22;20067;48.764;9.176;2024-03-23T11:43:01;12.40;88.20
26186;DHT22;20067;48.764;9.176;2024-03-23T11:45:27;13.70;87.10
26186;DHT22;20067;48.764;9.176;2024-03-23T11:48:08;15.30;82.60
26186;DHT22;20067;48.764;9.176;2024-03-23T11:50:39;16.70;79.40
26186;DHT22;20067;48.764;9.176;2024-03-23T11:58:11;14.80;78.90
26186;DHT22;20067;48.764;9.176;2024-03-23T12:00:37;14.30;78.90
26186;DHT22;20067;48.764;9.176;2024-03-23T12:03:05;13.60;81.30
26186;DHT22;20067;48.764;9.176;2024-03-23T12:05:32;13.10;80.10
26186;DHT22;20067;48.764;9.176;2024-03-23T12:08:21;11.90;79.90
26186;DHT22;20067;48.764;9.176;2024-03-23T12:10:54;11.50;83.40
26186;DHT22;20067;48.764;9.176;2024-03-23T12:13:30;12.20;79.80
26186;DHT22;20067;48.764;9.176;2024-03-23T12:18:34;12.60;79.40
26186;DHT22;20067;48.764;9.176;2024-03-23T12:21:01;12.40;77.80
26186;DHT22;20067;48.764;9.176;2024-03-23T12:23:27;11.80;78.80
26186;DHT22;20067;48.764;9.176;2024-03-23T12:25:53;11.40;80.40
26186;DHT22;20067;48.764;9.176;2024-03-23T12:28:19;11.40;80.90
26186;DHT22;20067;48.764;9.176;2024-03-23T12:30:46;11.50;79.70
26186;DHT22;20067;48.764;9.176;2024-03-23T12:33:11;12.20;79.40
26186;DHT22;20067;48.764;9.176;2024-03-23T12:35:38;13.60;75.30
26186;DHT22;20067;48.764;9.176;2024-03-23T12:38:04;14.30;74.20
26186;DHT22;20067;48.764;9.176;2024-03-23T12:40:31;14.00;72.30
26186;DHT22;20067;48.764;9.176;2024-03-23T12:42:56;13.10;73.60
26186;DHT22;20067;48.764;9.176;2024-03-23T12:45:23;12.40;76.00
26186;DHT22;20067;48.764;9.176;2024-03-23T12:47:49;11.90;76.90
26186;DHT22;20067;48.764;9.176;2024-03-23T12:50:17;11.60;78.20
26186;DHT22;20067;48.764;9.176;2024-03-23T12:52:43;11.40;79.70
26186;DHT22;20067;48.764;9.176;2024-03-23T12:55:10;11.20;80.00
26186;DHT22;20067;48.764;9.176;2024-03-23T12:57:36;11.00;79.20
26186;DHT22;20067;48.764;9.176;2024-03-23T13:00:03;10.90;80.70
26186;DHT22;20067;48.764;9.176;2024-03-23T13:02:29;10.80;80.60
26186;DHT22;20067;48.764;9.176;2024-03-23T13:04:56;10.80;81.20
26186;DHT22;20067;48.764;9.176;2024-03-23T13:07:23;11.30;81.40
26186;DHT22;20067;48.764;9.176;2024-03-23T13:09:51;12.20;80.20
26186;DHT22;20067;48.764;9.176;2024-03-23T13:12:17;12.70;78.00
26186;DHT22;20067;48.764;9.176;2024-03-23T13:14:46;12.60;77.10
26186;DHT22;20067;48.764;9.176;2024-03-23T13:17:11;12.30;78.00
26186;DHT22;20067;48.764;9.176;2024-03-23T13:19:38;13.50;78.30
26186;DHT22;20067;48.764;9.176;2024-03-23T13:22:04;15.40;72.80
26186;DHT22;20067;48.764;9.176;2024-03-23T13:24:31;14.90;71.50
26186;DHT22;20067;48.764;9.176;2024-03-23T13:26:57;13.50;74.10
26186;DHT22;20067;48.764;9.176;2024-03-23T13:29:24;12.80;77.00
26186;DHT22;20067;48.764;9.176;2024-03-23T13:31:51;13.20;76.80
26186;DHT22;20067;48.764;9.176;2024-03-23T13:34:18;13.50;75.60
26186;DHT22;20067;48.764;9.176;2024-03-23T13:36:47;13.40;74.20
26186;DHT22;20067;48.764;9.176;2024-03-23T13:39:14;12.90;73.80
26186;DHT22;20067;48.764;9.176;2024-03-23T13:41:42;12.60;73.40
26186;DHT22;20067;48.764;9.176;2024-03-23T13:44:12;13.40;69.90
26186;DHT22;20067;48.764;9.176;2024-03-23T13:46:39;15.40;65.70
26186;DHT22;20067;48.764;9.176;2024-03-23T13:49:13;15.60;62.50
26186;DHT22;20067;48.764;9.176;2024-03-23T13:51:46;16.00;62.20
26186;DHT22;20067;48.764;9.176;2024-03-23T13:54:13;15.60;63.10
26186;DHT22;20067;48.764;9.176;2024-03-23T13:56:39;15.40;63.60
26186;DHT22;20067;48.764;9.176;2024-03-23T13:59:05;15.80;62.40
26186;DHT22;20067;48.764;9.176;2024-03-23T14:01:32;15.30;62.60
26186;DHT22;20067;48.764;9.176;2024-03-23T14:03:59;14.40;64.90
26186;DHT22;20067;48.764;9.176;2024-03-23T14:06:24;12.80;69.50
26186;DHT22;20067;48.764;9.176;2024-03-23T14:08:51;12.10;72.40
26186;DHT22;20067;48.764;9.176;2024-03-23T14:11:18;11.80;77.20
26186;DHT22;20067;48.764;9.176;2024-03-23T14:13:45;11.70;78.20
26186;DHT22;20067;48.764;9.176;2024-03-23T14:16:11;11.50;80.00
26186;DHT22;20067;48.764;9.176;2024-03-23T14:18:38;11.00;81.50
26186;DHT22;20067;48.764;9.176;2024-03-23T14:21:04;10.30;87.10
26186;DHT22;20067;48.764;9.176;2024-03-23T14:23:31;9.70;89.90
26186;DHT22;20067;48.764;9.176;2024-03-23T14:25:59;9.70;90.60
26186;DHT22;20067;48.764;9.176;2024-03-23T14:28:25;9.80;91.10
26186;DHT22;20067;48.764;9.176;2024-03-23T14:30:55;9.90;91.30
26186;DHT22;20067;48.764;9.176;2024-03-23T14:33:22;10.60;89.30
26186;DHT22;20067;48.764;9.176;2024-03-23T14:35:56;9.90;90.10
26186;DHT22;20067;48.764;9.176;2024-03-23T14:38:22;11.70;88.20
26186;DHT22;20067;48.764;9.176;2024-03-23T14:40:49;13.20;82.60
26186;DHT22;20067;48.764;9.176;2024-03-23T14:43:15;13.80;80.30
26186;DHT22;20067;48.764;9.176;2024-03-23T14:46:06;15.50;76.60
26186;DHT22;20067;48.764;9.176;2024-03-23T14:48:32;17.20;72.10
26186;DHT22;20067;48.764;9.176;2024-03-23T14:50:59;16.10;73.50
26186;DHT22;20067;48.764;9.176;2024-03-23T14:53:28;15.20;75.70
26186;DHT22;20067;48.764;9.176;2024-03-23T14:55:56;15.50;74.80
26186;DHT22;20067;48.764;9.176;2024-03-23T14:58:22;14.80;74.80
26186;DHT22;20067;48.764;9.176;2024-03-23T15:00:50;13.70;76.70
26186;DHT22;20067;48.764;9.176;2024-03-23T15:03:17;12.50;80.30
26186;DHT22;20067;48.764;9.176;2024-03-23T15:05:57;11.60;81.50
26186;DHT22;20067;48.764;9.176;2024-03-23T15:08:23;10.90;83.60
26186;DHT22;20067;48.764;9.176;2024-03-23T15:10:50;10.80;84.70
26186;DHT22;20067;48.764;9.176;2024-03-23T15:13:17;10.20;84.70
26186;DHT22;20067;48.764;9.176;2024-03-23T15:15:44;10.20;86.70
26186;DHT22;20067;48.764;9.176;2024-03-23T15:18:13;10.90;85.90
26186;DHT22;20067;48.764;9.176;2024-03-23T15:20:41;12.40;81.80
26186;DHT22;20067;48.764;9.176;2024-03-23T15:23:07;13.50;78.10
26186;DHT22;20067;48.764;9.176;2024-03-23T15:25:34;14.00;76.60
26186;DHT22;20067;48.764;9.176;2024-03-23T15:28:00;14.40;74.90
26186;DHT22;20067;48.764;9.176;2024-03-23T15:30:28;14.40;73.90
26186;DHT22;20067;48.764;9.176;2024-03-23T15:32:55;14.20;75.10
26186;DHT22;20067;48.764;9.176;2024-03-23T15:35:21;14.80;73.60
26186;DHT22;20067;48.764;9.176;2024-03-23T15:37:49;15.70;71.60
26186;DHT22;20067;48.764;9.176;2024-03-23T15:40:15;14.80;72.70
26186;DHT22;20067;48.764;9.176;2024-03-23T15:42:41;13.80;74.90
26186;DHT22;20067;48.764;9.176;2024-03-23T15:45:08;12.90;76.60
26186;DHT22;20067;48.764;9.176;2024-03-23T15:47:35;12.10;78.30
26186;DHT22;20067;48.764;9.176;2024-03-23T15:50:02;12.20;79.40
26186;DHT22;20067;48.764;9.176;2024-03-23T15:52:33;12.30;78.90
26186;DHT22;20067;48.764;9.176;2024-03-23T15:55:01;12.20;79.00
26186;DHT22;20067;48.764;9.176;2024-03-23T15:57:26;11.70;79.90
26186;DHT22;20067;48.764;9.176;2024-03-23T15:59:53;11.50;81.20
26186;DHT22;20067;48.764;9.176;2024-03-23T16:02:19;11.40;81.50
26186;DHT22;20067;48.764;9.176;2024-03-23T16:04:45;11.20;82.70
26186;DHT22;20067;48.764;9.176;2024-03-23T16:07:11;11.40;83.10
26186;DHT22;20067;48.764;9.176;2024-03-23T16:09:38;11.60;82.70
26186;DHT22;20067;48.764;9.176;2024-03-23T16:12:04;11.50;81.50
26186;DHT22;20067;48.764;9.176;2024-03-23T16:14:32;11.00;82.50
26186;DHT22;20067;48.764;9.176;2024-03-23T16:16:57;10.70;81.30
26186;DHT22;20067;48.764;9.176;2024-03-23T16:19:24;10.50;82.40
26186;DHT22;20067;48.764;9.176;2024-03-23T16:21:50;10.30;82.00
26186;DHT22;20067;48.764;9.176;2024-03-23T16:24:17;10.20;82.30
26186;DHT22;20067;48.764;9.176;2024-03-23T16:26:42;9.80;83.20
26186;DHT22;20067;48.764;9.176;2024-03-23T16:29:11;9.60;83.70
26186;DHT22;20067;48.764;9.176;2024-03-23T16:31:36;9.40;84.30
26186;DHT22;20067;48.764;9.176;2024-03-23T16:34:03;9.30;85.00
26186;DHT22;20067;48.764;9.176;2024-03-23T16:36:29;9.20;85.30
26186;DHT22;20067;48.764;9.176;2024-03-23T16:38:56;9.20;85.90
26186;DHT22;20067;48.764;9.176;2024-03-23T16:41:22;9.30;85.80
26186;DHT22;20067;48.764;9.176;2024-03-23T16:43:49;9.40;86.00
26186;DHT22;20067;48.764;9.176;2024-03-23T16:46:15;9.40;86.20